LGLM

Details ICAO LGLM (LXS)
Name Limnos
Region Greece
Timezone Europe/Athens (UTC+2.0)
Plans Departing 35
Arriving 44
Stats Elevation 14 ft / 4 m (AMSL)
Location 39.917028° 25.236348°
Runways 1
Magnetic Variation 4.856° E
Sunrise 2017-12-12 05:32:43 UTC / 2017-12-12 07:32:43 Local
Sunset 2017-12-12 14:55:40 UTC / 2017-12-12 16:55:40 Local
Advertisement - Login to hide

Runways

ID Width Length Bearing (true) Bearing (mag) Surface Threshold Offset Overrun Length
04R 148 ft / 45 m 9,842 ft / 3,000 m 43.04° 38.18° Asphalt 0 ft / 0 m 920 ft / 280 m
22L 148 ft / 45 m 9,842 ft / 3,000 m 223.05° 218.19° Asphalt 0 ft / 0 m 920 ft / 280 m

Map

Weather


0- 5 10 15 20 25 30 35+ Temperature / ° C

Clouds and Precipitation
Forecast for 2017-12-12 06:00 UTC. Updated 4 minutes ago

Ground ~20,000 ft ~40,000 ft Winds

METAR

LGLM 120050Z AUTO 00000KT //// // ////// 06/04 Q1021 RERA

TAF

Not found

Frequencies

Tower 128.50 MHz TWR
Approach 128.50 MHz APP
Warning: Do not use this data for real-world aviation or navigation. No guarantee of current accuracy is given.